createdAt,value
2022-09-28T00:06:23.973Z,9.39
2022-09-28T00:16:24.109Z,9.42
2022-09-28T00:26:24.324Z,9.26
2022-09-28T00:36:24.370Z,9.24
2022-09-28T00:46:24.677Z,9.38
2022-09-28T00:56:24.705Z,9.02
2022-09-28T01:06:25.029Z,8.94
2022-09-28T01:16:25.129Z,9.13
2022-09-28T01:26:25.275Z,9.05
2022-09-28T01:36:25.307Z,8.98
2022-09-28T01:46:25.611Z,9.04
2022-09-28T01:56:25.645Z,9.21
2022-09-28T02:06:25.978Z,8.98
2022-09-28T02:16:26.064Z,8.95
2022-09-28T02:26:26.221Z,8.84
2022-09-28T02:36:26.244Z,8.89
2022-09-28T02:46:26.562Z,8.96
2022-09-28T02:56:26.601Z,9.05
2022-09-28T03:06:26.908Z,9.02
2022-09-28T03:16:27.005Z,9.13
2022-09-28T03:26:27.154Z,9.15
2022-09-28T03:36:27.181Z,9.08
2022-09-28T03:46:27.518Z,8.99
2022-09-28T03:56:27.609Z,8.94
2022-09-28T04:06:28.572Z,8.91
2022-09-28T04:16:27.851Z,8.89
2022-09-28T04:26:30.054Z,8.95
2022-09-28T04:36:28.104Z,8.87
2022-09-28T04:46:28.373Z,8.86
2022-09-28T04:56:28.607Z,8.95
2022-09-28T05:06:28.923Z,8.83
2022-09-28T05:16:29.006Z,8.86
2022-09-28T05:26:29.169Z,8.98
2022-09-28T05:36:29.200Z,9.02
2022-09-28T05:46:29.570Z,8.99
2022-09-28T05:56:29.637Z,9.10
2022-09-28T06:06:29.975Z,9.11
2022-09-28T06:16:30.072Z,9.14
2022-09-28T06:26:30.241Z,9.13
2022-09-28T06:36:30.255Z,9.13
2022-09-28T06:46:30.630Z,9.13
2022-09-28T06:56:32.947Z,9.20
2022-09-28T07:06:31.007Z,9.31
2022-09-28T07:16:53.717Z,9.32
2022-09-28T07:26:32.306Z,9.31
2022-09-28T07:36:31.642Z,9.20
2022-09-28T07:46:31.652Z,9.31
2022-09-28T07:56:31.989Z,9.40
2022-09-28T08:06:32.009Z,9.40
2022-09-28T08:16:32.423Z,9.50
2022-09-28T08:26:32.487Z,9.58
2022-09-28T08:36:32.785Z,9.69
2022-09-28T08:46:32.857Z,9.72
2022-09-28T08:56:32.884Z,9.74
2022-09-28T09:06:33.119Z,9.84
2022-09-28T09:16:33.425Z,9.96
2022-09-28T09:26:33.515Z,10.17
2022-09-28T09:36:33.643Z,10.32
2022-09-28T09:46:33.665Z,10.34
2022-09-28T09:56:34.016Z,10.36
2022-09-28T10:06:34.052Z,10.61
2022-09-28T10:16:34.386Z,10.66
2022-09-28T10:26:34.406Z,10.84
2022-09-28T10:36:34.687Z,10.85
2022-09-28T10:46:34.781Z,10.82
2022-09-28T10:56:34.937Z,10.94
2022-09-28T11:06:34.962Z,11.02
2022-09-28T11:16:35.341Z,11.10
2022-09-28T11:26:35.391Z,11.09
2022-09-28T11:36:35.729Z,11.19
2022-09-28T11:46:35.751Z,11.17
2022-09-28T11:56:36.079Z,11.35
2022-09-28T12:06:36.107Z,11.22
2022-09-28T12:17:04.326Z,11.32
2022-09-28T12:26:38.132Z,11.47
2022-09-28T12:36:36.678Z,11.51
2022-09-28T12:46:36.805Z,11.99
2022-09-28T12:56:37.032Z,12.19
2022-09-28T13:06:37.063Z,12.71
2022-09-28T13:16:37.380Z,12.56
2022-09-28T13:26:37.410Z,12.31
2022-09-28T13:36:37.729Z,11.94
2022-09-28T13:46:37.804Z,12.10
2022-09-28T13:56:38.077Z,11.91
2022-09-28T14:06:38.097Z,13.42
2022-09-28T14:16:38.596Z,12.37
2022-09-28T14:26:38.424Z,11.96
2022-09-28T14:36:38.878Z,11.82
2022-09-28T14:46:38.951Z,11.72
2022-09-28T14:56:39.147Z,11.76
2022-09-28T15:06:39.162Z,11.49
2022-09-28T15:16:39.507Z,11.28
2022-09-28T15:26:39.538Z,11.40
2022-09-28T15:36:39.886Z,11.29
2022-09-28T15:46:39.985Z,11.19
2022-09-28T15:56:40.177Z,11.11
2022-09-28T16:06:40.222Z,10.94
2022-09-28T16:16:45.704Z,10.78
2022-09-28T16:26:41.600Z,10.71
2022-09-28T16:36:40.980Z,10.74
2022-09-28T16:46:41.107Z,10.71
2022-09-28T16:56:41.222Z,10.51
2022-09-28T17:06:41.466Z,10.08
2022-09-28T17:26:43.044Z,9.87
2022-09-28T17:36:42.079Z,9.90
2022-09-28T17:46:42.362Z,9.89
2022-09-28T17:56:42.438Z,9.93
2022-09-28T18:06:42.858Z,9.91
2022-09-28T18:16:42.899Z,9.75
2022-09-28T18:26:43.254Z,9.78
2022-09-28T18:36:43.323Z,9.84
2022-09-28T18:46:43.727Z,9.68
2022-09-28T18:56:43.920Z,9.48
2022-09-28T19:06:44.179Z,9.36
2022-09-28T19:16:44.251Z,9.28
2022-09-28T19:26:44.637Z,9.46
2022-09-28T19:36:44.695Z,9.43
2022-09-28T19:46:45.175Z,9.40
2022-09-28T19:56:45.059Z,9.29
2022-09-28T20:06:45.360Z,9.35
2022-09-28T20:16:45.398Z,9.26
2022-09-28T20:26:45.787Z,9.15
2022-09-28T20:36:45.703Z,9.20
2022-09-28T20:46:46.127Z,9.21
2022-09-28T20:56:45.971Z,9.21
2022-09-28T21:06:46.428Z,8.81
2022-09-28T21:16:46.448Z,8.73
2022-09-28T21:26:46.869Z,8.84
2022-09-28T21:36:46.897Z,8.77
2022-09-28T21:46:47.307Z,8.71
2022-09-28T21:56:47.347Z,8.77
2022-09-28T22:06:47.663Z,8.76
2022-09-28T22:16:47.690Z,8.77
2022-09-28T22:26:48.006Z,8.61
2022-09-28T22:36:48.068Z,8.63
2022-09-28T22:46:48.386Z,8.74
2022-09-28T22:56:48.426Z,8.94
2022-09-28T23:06:48.723Z,8.95
2022-09-28T23:16:48.760Z,9.05
2022-09-28T23:26:49.068Z,8.83
2022-09-28T23:36:49.111Z,8.86
2022-09-28T23:46:49.373Z,8.79
2022-09-28T23:56:49.485Z,8.87
